Reconquista, Reconquista Airport (SATR)

NameReconquista Airport
CityReconquista
CountryArgentina
ICAOSATR
IATARCQ
Altitude49 m
CoordinatesGoogle Map
Live Air TrafficLiveATC.net
METARSATR 251607Z 11008KT 8000 TS FEW045CB OVC100 17/13 Q1015
2019-08-25 16:07:00 Wind: East (110°) 4.12 m/s - Visibility: 8000 m - Weather: Thunderstorm - Temperature: 17 °C - Dew point: 13 °C - Humidity: 77.5% - Pressure: 1015 hPa

Sorry, no flights used the airport in this database.